sensor_id;sensor_type;location;lat;lon;timestamp;P1;P2;P0
80639;PMS5003;69992;60.170;24.692;2023-12-20T00:00:21;0;0;
80639;PMS5003;69992;60.170;24.692;2023-12-20T00:02:43;0;0;
80639;PMS5003;69992;60.170;24.692;2023-12-20T00:05:09;2;2;
80639;PMS5003;69992;60.170;24.692;2023-12-20T00:07:34;0;0;
80639;PMS5003;69992;60.170;24.692;2023-12-20T00:10:00;0;0;
80639;PMS5003;69992;60.170;24.692;2023-12-20T00:12:25;0;0;
80639;PMS5003;69992;60.170;24.692;2023-12-20T00:14:51;1;0;
80639;PMS5003;69992;60.170;24.692;2023-12-20T00:17:16;0;0;
80639;PMS5003;69992;60.170;24.692;2023-12-20T00:19:42;0;0;
80639;PMS5003;69992;60.170;24.692;2023-12-20T00:22:07;0;0;
80639;PMS5003;69992;60.170;24.692;2023-12-20T00:24:36;0;0;
80639;PMS5003;69992;60.170;24.692;2023-12-20T00:26:57;0;0;
80639;PMS5003;69992;60.170;24.692;2023-12-20T00:29:23;0;0;
80639;PMS5003;69992;60.170;24.692;2023-12-20T00:31:48;1;0;
80639;PMS5003;69992;60.170;24.692;2023-12-20T00:34:14;0;0;
80639;PMS5003;69992;60.170;24.692;2023-12-20T00:36:39;0;0;
80639;PMS5003;69992;60.170;24.692;2023-12-20T00:39:05;0;0;
80639;PMS5003;69992;60.170;24.692;2023-12-20T00:41:30;1;1;
80639;PMS5003;69992;60.170;24.692;2023-12-20T00:43:57;0;0;
80639;PMS5003;69992;60.170;24.692;2023-12-20T00:46:21;0;0;
80639;PMS5003;69992;60.170;24.692;2023-12-20T00:48:47;0;0;
80639;PMS5003;69992;60.170;24.692;2023-12-20T00:51:12;0;0;
80639;PMS5003;69992;60.170;24.692;2023-12-20T00:53:37;0;0;
80639;PMS5003;69992;60.170;24.692;2023-12-20T00:56:03;0;0;
80639;PMS5003;69992;60.170;24.692;2023-12-20T00:58:28;1;1;
80639;PMS5003;69992;60.170;24.692;2023-12-20T01:00:53;0;0;
80639;PMS5003;69992;60.170;24.692;2023-12-20T01:03:19;0;0;
80639;PMS5003;69992;60.170;24.692;2023-12-20T01:05:44;1;0;
80639;PMS5003;69992;60.170;24.692;2023-12-20T01:08:10;1;0;
80639;PMS5003;69992;60.170;24.692;2023-12-20T01:10:35;1;1;
80639;PMS5003;69992;60.170;24.692;2023-12-20T01:13:01;0;0;
80639;PMS5003;69992;60.170;24.692;2023-12-20T01:15:26;0;0;
80639;PMS5003;69992;60.170;24.692;2023-12-20T01:17:52;0;0;
80639;PMS5003;69992;60.170;24.692;2023-12-20T01:20:17;0;0;
80639;PMS5003;69992;60.170;24.692;2023-12-20T01:22:42;0;0;
80639;PMS5003;69992;60.170;24.692;2023-12-20T01:25:08;0;0;
80639;PMS5003;69992;60.170;24.692;2023-12-20T01:27:34;0;0;
80639;PMS5003;69992;60.170;24.692;2023-12-20T01:29:59;0;0;
80639;PMS5003;69992;60.170;24.692;2023-12-20T01:32:25;0;0;
80639;PMS5003;69992;60.170;24.692;2023-12-20T01:34:50;0;0;
80639;PMS5003;69992;60.170;24.692;2023-12-20T01:37:16;0;0;
80639;PMS5003;69992;60.170;24.692;2023-12-20T01:39:41;0;0;
80639;PMS5003;69992;60.170;24.692;2023-12-20T01:42:06;0;0;
80639;PMS5003;69992;60.170;24.692;2023-12-20T01:44:31;0;0;
80639;PMS5003;69992;60.170;24.692;2023-12-20T01:46:57;2;0;
80639;PMS5003;69992;60.170;24.692;2023-12-20T01:49:22;0;0;
80639;PMS5003;69992;60.170;24.692;2023-12-20T01:51:48;0;0;
80639;PMS5003;69992;60.170;24.692;2023-12-20T01:54:13;0;0;
80639;PMS5003;69992;60.170;24.692;2023-12-20T01:56:39;0;0;
80639;PMS5003;69992;60.170;24.692;2023-12-20T01:59:04;1;0;
80639;PMS5003;69992;60.170;24.692;2023-12-20T02:01:30;0;0;
80639;PMS5003;69992;60.170;24.692;2023-12-20T02:03:55;0;0;
80639;PMS5003;69992;60.170;24.692;2023-12-20T02:06:21;0;0;
80639;PMS5003;69992;60.170;24.692;2023-12-20T02:08:46;0;0;
80639;PMS5003;69992;60.170;24.692;2023-12-20T02:11:11;0;0;
80639;PMS5003;69992;60.170;24.692;2023-12-20T02:13:40;0;0;
80639;PMS5003;69992;60.170;24.692;2023-12-20T02:16:03;1;1;
80639;PMS5003;69992;60.170;24.692;2023-12-20T02:18:28;0;0;
80639;PMS5003;69992;60.170;24.692;2023-12-20T02:20:54;1;0;
80639;PMS5003;69992;60.170;24.692;2023-12-20T02:23:19;0;0;
80639;PMS5003;69992;60.170;24.692;2023-12-20T02:25:44;0;0;
80639;PMS5003;69992;60.170;24.692;2023-12-20T02:28:10;0;0;
80639;PMS5003;69992;60.170;24.692;2023-12-20T02:30:35;0;0;
80639;PMS5003;69992;60.170;24.692;2023-12-20T02:33:00;0;0;
80639;PMS5003;69992;60.170;24.692;2023-12-20T02:35:26;0;0;
80639;PMS5003;69992;60.170;24.692;2023-12-20T02:37:51;0;0;
80639;PMS5003;69992;60.170;24.692;2023-12-20T02:40:17;0;0;
80639;PMS5003;69992;60.170;24.692;2023-12-20T02:42:42;1;0;
80639;PMS5003;69992;60.170;24.692;2023-12-20T02:45:08;0;0;
80639;PMS5003;69992;60.170;24.692;2023-12-20T02:47:33;0;0;
80639;PMS5003;69992;60.170;24.692;2023-12-20T02:49:59;0;0;
80639;PMS5003;69992;60.170;24.692;2023-12-20T02:52:24;1;0;
80639;PMS5003;69992;60.170;24.692;2023-12-20T02:54:49;0;0;
80639;PMS5003;69992;60.170;24.692;2023-12-20T02:57:15;0;0;
80639;PMS5003;69992;60.170;24.692;2023-12-20T02:59:40;0;0;
80639;PMS5003;69992;60.170;24.692;2023-12-20T03:02:05;0;0;
80639;PMS5003;69992;60.170;24.692;2023-12-20T03:04:31;0;0;
80639;PMS5003;69992;60.170;24.692;2023-12-20T03:06:56;0;0;
80639;PMS5003;69992;60.170;24.692;2023-12-20T03:09:22;0;0;
80639;PMS5003;69992;60.170;24.692;2023-12-20T03:11:47;0;0;
80639;PMS5003;69992;60.170;24.692;2023-12-20T03:14:13;0;0;
80639;PMS5003;69992;60.170;24.692;2023-12-20T03:16:46;0;0;
80639;PMS5003;69992;60.170;24.692;2023-12-20T03:19:04;1;0;
80639;PMS5003;69992;60.170;24.692;2023-12-20T03:21:29;1;0;
80639;PMS5003;69992;60.170;24.692;2023-12-20T03:23:55;0;0;
80639;PMS5003;69992;60.170;24.692;2023-12-20T03:26:20;1;0;
80639;PMS5003;69992;60.170;24.692;2023-12-20T03:28:45;1;0;
80639;PMS5003;69992;60.170;24.692;2023-12-20T03:31:11;0;0;
80639;PMS5003;69992;60.170;24.692;2023-12-20T03:33:37;1;0;
80639;PMS5003;69992;60.170;24.692;2023-12-20T03:36:01;0;0;
80639;PMS5003;69992;60.170;24.692;2023-12-20T03:38:27;0;0;
80639;PMS5003;69992;60.170;24.692;2023-12-20T03:40:52;1;0;
80639;PMS5003;69992;60.170;24.692;2023-12-20T03:43:18;0;0;
80639;PMS5003;69992;60.170;24.692;2023-12-20T03:45:43;0;0;
80639;PMS5003;69992;60.170;24.692;2023-12-20T03:48:09;0;0;
80639;PMS5003;69992;60.170;24.692;2023-12-20T03:50:34;1;0;
80639;PMS5003;69992;60.170;24.692;2023-12-20T03:53:00;0;0;
80639;PMS5003;69992;60.170;24.692;2023-12-20T03:55:25;0;0;
80639;PMS5003;69992;60.170;24.692;2023-12-20T03:57:51;0;0;
80639;PMS5003;69992;60.170;24.692;2023-12-20T04:00:16;0;0;
80639;PMS5003;69992;60.170;24.692;2023-12-20T04:02:42;0;0;
80639;PMS5003;69992;60.170;24.692;2023-12-20T04:05:07;0;0;
80639;PMS5003;69992;60.170;24.692;2023-12-20T04:07:32;0;0;
80639;PMS5003;69992;60.170;24.692;2023-12-20T04:09:57;0;0;
80639;PMS5003;69992;60.170;24.692;2023-12-20T04:12:23;1;1;
80639;PMS5003;69992;60.170;24.692;2023-12-20T04:14:48;0;0;
80639;PMS5003;69992;60.170;24.692;2023-12-20T04:17:14;0;0;
80639;PMS5003;69992;60.170;24.692;2023-12-20T04:19:39;0;0;
80639;PMS5003;69992;60.170;24.692;2023-12-20T04:22:05;2;1;
80639;PMS5003;69992;60.170;24.692;2023-12-20T04:24:30;1;0;
80639;PMS5003;69992;60.170;24.692;2023-12-20T04:26:56;2;2;
80639;PMS5003;69992;60.170;24.692;2023-12-20T04:29:21;1;1;
80639;PMS5003;69992;60.170;24.692;2023-12-20T04:31:46;0;0;
80639;PMS5003;69992;60.170;24.692;2023-12-20T04:34:11;2;0;
80639;PMS5003;69992;60.170;24.692;2023-12-20T04:36:37;0;0;
80639;PMS5003;69992;60.170;24.692;2023-12-20T04:39:02;2;1;
80639;PMS5003;69992;60.170;24.692;2023-12-20T04:41:28;0;0;
80639;PMS5003;69992;60.170;24.692;2023-12-20T04:43:53;1;0;
80639;PMS5003;69992;60.170;24.692;2023-12-20T04:46:19;2;0;
80639;PMS5003;69992;60.170;24.692;2023-12-20T04:48:44;0;0;
80639;PMS5003;69992;60.170;24.692;2023-12-20T04:51:10;1;1;
80639;PMS5003;69992;60.170;24.692;2023-12-20T04:53:35;0;0;
80639;PMS5003;69992;60.170;24.692;2023-12-20T04:56:01;0;0;
80639;PMS5003;69992;60.170;24.692;2023-12-20T04:58:29;0;0;
80639;PMS5003;69992;60.170;24.692;2023-12-20T05:00:52;0;0;
80639;PMS5003;69992;60.170;24.692;2023-12-20T05:03:17;0;0;
80639;PMS5003;69992;60.170;24.692;2023-12-20T05:05:43;0;0;
80639;PMS5003;69992;60.170;24.692;2023-12-20T05:08:08;1;1;
80639;PMS5003;69992;60.170;24.692;2023-12-20T05:10:33;0;0;
80639;PMS5003;69992;60.170;24.692;2023-12-20T05:12:58;0;0;
80639;PMS5003;69992;60.170;24.692;2023-12-20T05:15:24;1;0;
80639;PMS5003;69992;60.170;24.692;2023-12-20T05:17:49;0;0;
80639;PMS5003;69992;60.170;24.692;2023-12-20T05:20:15;1;0;
80639;PMS5003;69992;60.170;24.692;2023-12-20T05:22:41;0;0;
80639;PMS5003;69992;60.170;24.692;2023-12-20T05:25:06;0;0;
80639;PMS5003;69992;60.170;24.692;2023-12-20T05:27:31;0;0;
80639;PMS5003;69992;60.170;24.692;2023-12-20T05:29:57;1;0;
80639;PMS5003;69992;60.170;24.692;2023-12-20T05:32:22;1;0;
80639;PMS5003;69992;60.170;24.692;2023-12-20T05:34:53;1;1;
80639;PMS5003;69992;60.170;24.692;2023-12-20T05:37:13;1;1;
80639;PMS5003;69992;60.170;24.692;2023-12-20T05:39:39;0;0;
80639;PMS5003;69992;60.170;24.692;2023-12-20T05:42:04;0;0;
80639;PMS5003;69992;60.170;24.692;2023-12-20T05:44:29;0;0;
80639;PMS5003;69992;60.170;24.692;2023-12-20T05:46:54;1;0;
80639;PMS5003;69992;60.170;24.692;2023-12-20T05:49:20;0;0;
80639;PMS5003;69992;60.170;24.692;2023-12-20T05:51:46;0;0;
80639;PMS5003;69992;60.170;24.692;2023-12-20T05:54:11;0;0;
80639;PMS5003;69992;60.170;24.692;2023-12-20T05:56:36;0;0;
80639;PMS5003;69992;60.170;24.692;2023-12-20T05:59:02;0;0;
80639;PMS5003;69992;60.170;24.692;2023-12-20T06:01:27;0;0;
80639;PMS5003;69992;60.170;24.692;2023-12-20T06:03:53;2;1;
80639;PMS5003;69992;60.170;24.692;2023-12-20T06:06:18;1;1;
80639;PMS5003;69992;60.170;24.692;2023-12-20T06:08:44;1;0;
80639;PMS5003;69992;60.170;24.692;2023-12-20T06:11:09;2;0;
80639;PMS5003;69992;60.170;24.692;2023-12-20T06:13:35;0;0;
80639;PMS5003;69992;60.170;24.692;2023-12-20T06:16:00;1;1;
80639;PMS5003;69992;60.170;24.692;2023-12-20T06:18:25;0;0;
80639;PMS5003;69992;60.170;24.692;2023-12-20T06:20:50;0;0;
80639;PMS5003;69992;60.170;24.692;2023-12-20T06:23:16;0;0;
80639;PMS5003;69992;60.170;24.692;2023-12-20T06:25:44;0;0;
80639;PMS5003;69992;60.170;24.692;2023-12-20T06:28:07;0;0;
80639;PMS5003;69992;60.170;24.692;2023-12-20T06:30:35;0;0;
80639;PMS5003;69992;60.170;24.692;2023-12-20T06:32:58;3;0;
80639;PMS5003;69992;60.170;24.692;2023-12-20T06:35:23;0;0;
80639;PMS5003;69992;60.170;24.692;2023-12-20T06:37:49;0;0;
80639;PMS5003;69992;60.170;24.692;2023-12-20T06:40:14;1;0;
80639;PMS5003;69992;60.170;24.692;2023-12-20T06:42:40;2;0;
80639;PMS5003;69992;60.170;24.692;2023-12-20T06:45:05;0;0;
80639;PMS5003;69992;60.170;24.692;2023-12-20T06:47:31;0;0;
80639;PMS5003;69992;60.170;24.692;2023-12-20T06:49:56;2;0;
80639;PMS5003;69992;60.170;24.692;2023-12-20T06:52:21;1;0;
80639;PMS5003;69992;60.170;24.692;2023-12-20T06:54:47;0;0;
80639;PMS5003;69992;60.170;24.692;2023-12-20T06:57:15;1;1;
80639;PMS5003;69992;60.170;24.692;2023-12-20T06:59:38;0;0;
80639;PMS5003;69992;60.170;24.692;2023-12-20T07:02:03;1;1;
80639;PMS5003;69992;60.170;24.692;2023-12-20T07:04:28;0;0;
80639;PMS5003;69992;60.170;24.692;2023-12-20T07:06:54;1;0;
80639;PMS5003;69992;60.170;24.692;2023-12-20T07:09:19;0;0;
80639;PMS5003;69992;60.170;24.692;2023-12-20T07:11:45;1;0;
80639;PMS5003;69992;60.170;24.692;2023-12-20T07:14:10;1;0;
80639;PMS5003;69992;60.170;24.692;2023-12-20T07:16:36;0;0;
80639;PMS5003;69992;60.170;24.692;2023-12-20T07:19:01;0;0;
80639;PMS5003;69992;60.170;24.692;2023-12-20T07:21:26;0;0;
80639;PMS5003;69992;60.170;24.692;2023-12-20T07:23:52;1;0;
80639;PMS5003;69992;60.170;24.692;2023-12-20T07:26:17;2;0;
80639;PMS5003;69992;60.170;24.692;2023-12-20T07:28:42;0;0;
80639;PMS5003;69992;60.170;24.692;2023-12-20T07:31:08;0;0;
80639;PMS5003;69992;60.170;24.692;2023-12-20T07:33:33;0;0;
80639;PMS5003;69992;60.170;24.692;2023-12-20T07:35:59;1;0;
80639;PMS5003;69992;60.170;24.692;2023-12-20T07:38:24;1;0;
80639;PMS5003;69992;60.170;24.692;2023-12-20T07:40:50;1;0;
80639;PMS5003;69992;60.170;24.692;2023-12-20T07:43:15;0;0;
80639;PMS5003;69992;60.170;24.692;2023-12-20T07:45:41;1;0;
80639;PMS5003;69992;60.170;24.692;2023-12-20T07:48:06;0;0;
80639;PMS5003;69992;60.170;24.692;2023-12-20T07:50:32;1;0;
80639;PMS5003;69992;60.170;24.692;2023-12-20T07:52:57;1;1;
80639;PMS5003;69992;60.170;24.692;2023-12-20T07:55:22;1;0;
80639;PMS5003;69992;60.170;24.692;2023-12-20T07:57:48;0;0;
80639;PMS5003;69992;60.170;24.692;2023-12-20T08:00:14;0;0;
80639;PMS5003;69992;60.170;24.692;2023-12-20T08:02:38;2;2;
80639;PMS5003;69992;60.170;24.692;2023-12-20T08:05:04;0;0;
80639;PMS5003;69992;60.170;24.692;2023-12-20T08:07:29;0;0;
80639;PMS5003;69992;60.170;24.692;2023-12-20T08:09:55;1;0;
80639;PMS5003;69992;60.170;24.692;2023-12-20T08:12:20;0;0;
80639;PMS5003;69992;60.170;24.692;2023-12-20T08:14:46;0;0;
80639;PMS5003;69992;60.170;24.692;2023-12-20T08:17:15;0;0;
80639;PMS5003;69992;60.170;24.692;2023-12-20T08:19:37;0;0;
80639;PMS5003;69992;60.170;24.692;2023-12-20T08:22:03;0;0;
80639;PMS5003;69992;60.170;24.692;2023-12-20T08:24:29;2;1;
80639;PMS5003;69992;60.170;24.692;2023-12-20T08:26:53;0;0;
80639;PMS5003;69992;60.170;24.692;2023-12-20T08:29:22;0;0;
80639;PMS5003;69992;60.170;24.692;2023-12-20T08:31:44;1;1;
80639;PMS5003;69992;60.170;24.692;2023-12-20T08:34:10;1;0;
80639;PMS5003;69992;60.170;24.692;2023-12-20T08:36:35;0;0;
80639;PMS5003;69992;60.170;24.692;2023-12-20T08:39:01;0;0;
80639;PMS5003;69992;60.170;24.692;2023-12-20T08:41:26;0;0;
80639;PMS5003;69992;60.170;24.692;2023-12-20T08:43:52;0;0;
80639;PMS5003;69992;60.170;24.692;2023-12-20T08:46:17;1;0;
80639;PMS5003;69992;60.170;24.692;2023-12-20T08:48:46;1;0;
80639;PMS5003;69992;60.170;24.692;2023-12-20T08:51:07;0;0;
80639;PMS5003;69992;60.170;24.692;2023-12-20T08:53:33;2;1;
80639;PMS5003;69992;60.170;24.692;2023-12-20T08:55:58;1;0;
80639;PMS5003;69992;60.170;24.692;2023-12-20T08:58:24;0;0;
80639;PMS5003;69992;60.170;24.692;2023-12-20T09:00:49;0;0;
80639;PMS5003;69992;60.170;24.692;2023-12-20T09:03:15;1;0;
80639;PMS5003;69992;60.170;24.692;2023-12-20T09:05:40;1;1;
80639;PMS5003;69992;60.170;24.692;2023-12-20T09:08:06;2;1;
80639;PMS5003;69992;60.170;24.692;2023-12-20T09:10:31;0;0;
80639;PMS5003;69992;60.170;24.692;2023-12-20T09:13:00;1;1;
80639;PMS5003;69992;60.170;24.692;2023-12-20T09:15:22;1;1;
80639;PMS5003;69992;60.170;24.692;2023-12-20T09:17:48;2;1;
80639;PMS5003;69992;60.170;24.692;2023-12-20T09:20:13;0;0;
80639;PMS5003;69992;60.170;24.692;2023-12-20T09:22:38;1;0;
80639;PMS5003;69992;60.170;24.692;2023-12-20T09:25:04;1;0;
80639;PMS5003;69992;60.170;24.692;2023-12-20T09:27:29;1;0;
80639;PMS5003;69992;60.170;24.692;2023-12-20T09:29:54;1;0;
80639;PMS5003;69992;60.170;24.692;2023-12-20T09:32:20;1;1;
80639;PMS5003;69992;60.170;24.692;2023-12-20T09:34:45;1;0;
80639;PMS5003;69992;60.170;24.692;2023-12-20T09:37:11;3;1;
80639;PMS5003;69992;60.170;24.692;2023-12-20T09:39:36;0;0;
80639;PMS5003;69992;60.170;24.692;2023-12-20T09:42:02;1;1;
80639;PMS5003;69992;60.170;24.692;2023-12-20T09:44:27;2;1;
80639;PMS5003;69992;60.170;24.692;2023-12-20T09:46:53;1;0;
80639;PMS5003;69992;60.170;24.692;2023-12-20T09:49:18;1;1;
80639;PMS5003;69992;60.170;24.692;2023-12-20T09:51:44;3;1;
80639;PMS5003;69992;60.170;24.692;2023-12-20T09:54:09;0;0;
80639;PMS5003;69992;60.170;24.692;2023-12-20T09:56:34;0;0;
80639;PMS5003;69992;60.170;24.692;2023-12-20T09:58:59;0;0;
80639;PMS5003;69992;60.170;24.692;2023-12-20T10:01:27;1;1;
80639;PMS5003;69992;60.170;24.692;2023-12-20T10:03:50;2;0;
80639;PMS5003;69992;60.170;24.692;2023-12-20T10:06:16;1;1;
80639;PMS5003;69992;60.170;24.692;2023-12-20T10:08:46;0;0;
80639;PMS5003;69992;60.170;24.692;2023-12-20T10:11:07;0;0;
80639;PMS5003;69992;60.170;24.692;2023-12-20T10:13:32;0;0;
80639;PMS5003;69992;60.170;24.692;2023-12-20T10:15:58;1;1;
80639;PMS5003;69992;60.170;24.692;2023-12-20T10:18:23;1;1;
80639;PMS5003;69992;60.170;24.692;2023-12-20T10:20:48;0;0;
80639;PMS5003;69992;60.170;24.692;2023-12-20T10:23:14;0;0;
80639;PMS5003;69992;60.170;24.692;2023-12-20T10:25:39;2;1;
80639;PMS5003;69992;60.170;24.692;2023-12-20T10:28:10;4;0;
80639;PMS5003;69992;60.170;24.692;2023-12-20T10:30:30;3;1;
80639;PMS5003;69992;60.170;24.692;2023-12-20T10:32:55;1;1;
80639;PMS5003;69992;60.170;24.692;2023-12-20T10:35:21;1;0;
80639;PMS5003;69992;60.170;24.692;2023-12-20T10:37:46;0;0;
80639;PMS5003;69992;60.170;24.692;2023-12-20T10:40:12;2;2;
80639;PMS5003;69992;60.170;24.692;2023-12-20T10:42:40;1;1;
80639;PMS5003;69992;60.170;24.692;2023-12-20T10:45:03;2;1;
80639;PMS5003;69992;60.170;24.692;2023-12-20T10:47:28;1;1;
80639;PMS5003;69992;60.170;24.692;2023-12-20T10:49:54;1;0;
80639;PMS5003;69992;60.170;24.692;2023-12-20T10:52:19;1;0;
80639;PMS5003;69992;60.170;24.692;2023-12-20T10:54:45;1;0;
80639;PMS5003;69992;60.170;24.692;2023-12-20T10:57:09;1;1;
80639;PMS5003;69992;60.170;24.692;2023-12-20T10:59:36;1;0;
80639;PMS5003;69992;60.170;24.692;2023-12-20T11:02:00;0;0;
80639;PMS5003;69992;60.170;24.692;2023-12-20T11:04:28;2;1;
80639;PMS5003;69992;60.170;24.692;2023-12-20T11:06:56;1;1;
80639;PMS5003;69992;60.170;24.692;2023-12-20T11:09:19;0;0;
80639;PMS5003;69992;60.170;24.692;2023-12-20T11:11:46;0;0;
80639;PMS5003;69992;60.170;24.692;2023-12-20T11:14:08;0;0;
80639;PMS5003;69992;60.170;24.692;2023-12-20T11:16:33;0;0;
80639;PMS5003;69992;60.170;24.692;2023-12-20T11:19:04;2;0;
80639;PMS5003;69992;60.170;24.692;2023-12-20T11:21:24;0;0;
80639;PMS5003;69992;60.170;24.692;2023-12-20T11:23:50;1;1;
80639;PMS5003;69992;60.170;24.692;2023-12-20T11:26:15;0;0;
80639;PMS5003;69992;60.170;24.692;2023-12-20T11:28:40;1;1;
80639;PMS5003;69992;60.170;24.692;2023-12-20T11:31:05;0;0;
80639;PMS5003;69992;60.170;24.692;2023-12-20T11:33:35;1;1;
80639;PMS5003;69992;60.170;24.692;2023-12-20T11:35:56;0;0;
80639;PMS5003;69992;60.170;24.692;2023-12-20T11:38:22;1;1;
80639;PMS5003;69992;60.170;24.692;2023-12-20T11:40:48;2;1;
80639;PMS5003;69992;60.170;24.692;2023-12-20T11:45:38;3;1;
80639;PMS5003;69992;60.170;24.692;2023-12-20T11:48:04;0;0;
80639;PMS5003;69992;60.170;24.692;2023-12-20T11:50:29;4;0;
80639;PMS5003;69992;60.170;24.692;2023-12-20T11:52:55;1;1;
80639;PMS5003;69992;60.170;24.692;2023-12-20T11:55:20;0;0;
80639;PMS5003;69992;60.170;24.692;2023-12-20T11:57:46;1;0;
80639;PMS5003;69992;60.170;24.692;2023-12-20T12:00:12;1;0;
80639;PMS5003;69992;60.170;24.692;2023-12-20T12:02:37;0;0;
80639;PMS5003;69992;60.170;24.692;2023-12-20T12:05:02;1;0;
80639;PMS5003;69992;60.170;24.692;2023-12-20T12:07:28;4;1;
80639;PMS5003;69992;60.170;24.692;2023-12-20T12:09:53;0;0;
80639;PMS5003;69992;60.170;24.692;2023-12-20T12:12:19;0;0;
80639;PMS5003;69992;60.170;24.692;2023-12-20T12:14:44;1;0;
80639;PMS5003;69992;60.170;24.692;2023-12-20T12:17:10;1;1;
80639;PMS5003;69992;60.170;24.692;2023-12-20T12:19:34;0;0;
80639;PMS5003;69992;60.170;24.692;2023-12-20T12:22:05;1;1;
80639;PMS5003;69992;60.170;24.692;2023-12-20T12:24:25;1;1;
80639;PMS5003;69992;60.170;24.692;2023-12-20T12:26:51;1;1;
80639;PMS5003;69992;60.170;24.692;2023-12-20T12:29:16;1;1;
80639;PMS5003;69992;60.170;24.692;2023-12-20T12:31:45;1;0;
80639;PMS5003;69992;60.170;24.692;2023-12-20T12:34:07;1;0;
80639;PMS5003;69992;60.170;24.692;2023-12-20T12:36:33;0;0;
80639;PMS5003;69992;60.170;24.692;2023-12-20T12:38:58;1;1;
80639;PMS5003;69992;60.170;24.692;2023-12-20T12:41:24;2;2;
80639;PMS5003;69992;60.170;24.692;2023-12-20T12:43:49;1;1;
80639;PMS5003;69992;60.170;24.692;2023-12-20T12:46:14;2;2;
80639;PMS5003;69992;60.170;24.692;2023-12-20T12:48:39;1;1;
80639;PMS5003;69992;60.170;24.692;2023-12-20T12:51:05;1;1;
80639;PMS5003;69992;60.170;24.692;2023-12-20T12:53:31;1;1;
80639;PMS5003;69992;60.170;24.692;2023-12-20T12:55:57;1;1;
80639;PMS5003;69992;60.170;24.692;2023-12-20T12:58:22;2;1;
80639;PMS5003;69992;60.170;24.692;2023-12-20T13:00:48;1;1;
80639;PMS5003;69992;60.170;24.692;2023-12-20T13:03:13;1;1;
80639;PMS5003;69992;60.170;24.692;2023-12-20T13:05:39;1;1;
80639;PMS5003;69992;60.170;24.692;2023-12-20T13:08:04;2;1;
80639;PMS5003;69992;60.170;24.692;2023-12-20T13:10:29;1;1;
80639;PMS5003;69992;60.170;24.692;2023-12-20T13:12:54;2;1;
80639;PMS5003;69992;60.170;24.692;2023-12-20T13:15:20;1;1;
80639;PMS5003;69992;60.170;24.692;2023-12-20T13:17:45;3;2;
80639;PMS5003;69992;60.170;24.692;2023-12-20T13:20:14;1;1;
80639;PMS5003;69992;60.170;24.692;2023-12-20T13:22:36;1;0;
80639;PMS5003;69992;60.170;24.692;2023-12-20T13:25:02;1;1;
80639;PMS5003;69992;60.170;24.692;2023-12-20T13:27:27;2;1;
80639;PMS5003;69992;60.170;24.692;2023-12-20T13:29:53;1;1;
80639;PMS5003;69992;60.170;24.692;2023-12-20T13:32:18;1;0;
80639;PMS5003;69992;60.170;24.692;2023-12-20T13:34:44;1;0;
80639;PMS5003;69992;60.170;24.692;2023-12-20T13:37:09;2;1;
80639;PMS5003;69992;60.170;24.692;2023-12-20T13:39:35;1;1;
80639;PMS5003;69992;60.170;24.692;2023-12-20T13:42:00;1;1;
80639;PMS5003;69992;60.170;24.692;2023-12-20T13:44:26;2;2;
80639;PMS5003;69992;60.170;24.692;2023-12-20T13:46:51;3;1;
80639;PMS5003;69992;60.170;24.692;2023-12-20T13:49:17;0;0;
80639;PMS5003;69992;60.170;24.692;2023-12-20T13:51:42;1;1;
80639;PMS5003;69992;60.170;24.692;2023-12-20T13:54:08;1;1;
80639;PMS5003;69992;60.170;24.692;2023-12-20T13:56:34;1;0;
80639;PMS5003;69992;60.170;24.692;2023-12-20T13:58:59;0;0;
80639;PMS5003;69992;60.170;24.692;2023-12-20T14:01:24;2;1;
80639;PMS5003;69992;60.170;24.692;2023-12-20T14:03:49;4;4;
80639;PMS5003;69992;60.170;24.692;2023-12-20T14:06:14;20;12;
80639;PMS5003;69992;60.170;24.692;2023-12-20T14:08:39;10;9;
80639;PMS5003;69992;60.170;24.692;2023-12-20T14:11:05;7;6;
80639;PMS5003;69992;60.170;24.692;2023-12-20T14:13:30;4;2;
80639;PMS5003;69992;60.170;24.692;2023-12-20T14:15:55;2;2;
80639;PMS5003;69992;60.170;24.692;2023-12-20T14:18:20;3;3;
80639;PMS5003;69992;60.170;24.692;2023-12-20T14:20:48;2;2;
80639;PMS5003;69992;60.170;24.692;2023-12-20T14:23:10;2;2;
80639;PMS5003;69992;60.170;24.692;2023-12-20T14:25:35;1;1;
80639;PMS5003;69992;60.170;24.692;2023-12-20T14:28:00;1;1;
80639;PMS5003;69992;60.170;24.692;2023-12-20T14:30:25;1;1;
80639;PMS5003;69992;60.170;24.692;2023-12-20T14:32:54;2;1;
80639;PMS5003;69992;60.170;24.692;2023-12-20T14:35:15;2;2;
80639;PMS5003;69992;60.170;24.692;2023-12-20T14:37:40;4;4;
80639;PMS5003;69992;60.170;24.692;2023-12-20T14:40:06;6;6;
80639;PMS5003;69992;60.170;24.692;2023-12-20T14:42:30;4;4;
80639;PMS5003;69992;60.170;24.692;2023-12-20T14:44:56;4;3;
80639;PMS5003;69992;60.170;24.692;2023-12-20T14:47:21;2;2;
80639;PMS5003;69992;60.170;24.692;2023-12-20T14:49:46;4;4;
80639;PMS5003;69992;60.170;24.692;2023-12-20T14:52:11;4;3;
80639;PMS5003;69992;60.170;24.692;2023-12-20T14:54:36;6;4;
80639;PMS5003;69992;60.170;24.692;2023-12-20T14:57:01;4;4;
80639;PMS5003;69992;60.170;24.692;2023-12-20T14:59:26;8;6;
80639;PMS5003;69992;60.170;24.692;2023-12-20T15:01:51;12;12;
80639;PMS5003;69992;60.170;24.692;2023-12-20T15:04:17;9;7;
80639;PMS5003;69992;60.170;24.692;2023-12-20T15:06:42;6;4;
80639;PMS5003;69992;60.170;24.692;2023-12-20T15:09:07;2;2;
80639;PMS5003;69992;60.170;24.692;2023-12-20T15:11:32;3;3;
80639;PMS5003;69992;60.170;24.692;2023-12-20T15:13:57;9;9;
80639;PMS5003;69992;60.170;24.692;2023-12-20T15:16:22;8;8;
80639;PMS5003;69992;60.170;24.692;2023-12-20T15:18:47;13;12;
80639;PMS5003;69992;60.170;24.692;2023-12-20T15:21:14;6;6;
80639;PMS5003;69992;60.170;24.692;2023-12-20T15:23:38;9;8;
80639;PMS5003;69992;60.170;24.692;2023-12-20T15:26:03;7;4;
80639;PMS5003;69992;60.170;24.692;2023-12-20T15:28:29;6;6;
80639;PMS5003;69992;60.170;24.692;2023-12-20T15:30:53;3;3;
80639;PMS5003;69992;60.170;24.692;2023-12-20T15:33:18;4;3;
80639;PMS5003;69992;60.170;24.692;2023-12-20T15:35:43;6;4;
80639;PMS5003;69992;60.170;24.692;2023-12-20T15:38:09;3;3;
80639;PMS5003;69992;60.170;24.692;2023-12-20T15:40:34;3;3;
80639;PMS5003;69992;60.170;24.692;2023-12-20T15:42:59;13;8;
80639;PMS5003;69992;60.170;24.692;2023-12-20T15:45:24;8;8;
80639;PMS5003;69992;60.170;24.692;2023-12-20T15:47:49;6;6;
80639;PMS5003;69992;60.170;24.692;2023-12-20T15:50:14;9;8;
80639;PMS5003;69992;60.170;24.692;2023-12-20T15:52:39;8;7;
80639;PMS5003;69992;60.170;24.692;2023-12-20T15:55:05;13;9;
80639;PMS5003;69992;60.170;24.692;2023-12-20T15:57:33;9;8;
80639;PMS5003;69992;60.170;24.692;2023-12-20T15:59:55;9;8;
80639;PMS5003;69992;60.170;24.692;2023-12-20T16:02:21;8;8;
80639;PMS5003;69992;60.170;24.692;2023-12-20T16:04:46;11;7;
80639;PMS5003;69992;60.170;24.692;2023-12-20T16:07:11;12;11;
80639;PMS5003;69992;60.170;24.692;2023-12-20T16:09:37;9;9;
80639;PMS5003;69992;60.170;24.692;2023-12-20T16:12:02;13;13;
80639;PMS5003;69992;60.170;24.692;2023-12-20T16:14:27;9;8;
80639;PMS5003;69992;60.170;24.692;2023-12-20T16:16:53;9;9;
80639;PMS5003;69992;60.170;24.692;2023-12-20T16:19:18;8;6;
80639;PMS5003;69992;60.170;24.692;2023-12-20T16:21:43;9;8;